Řízení letového provozu České republiky  
Aktualizace dat:  12.11.2018 20:47:07 UTC English version
   METEO Zobrazení stránky:  12.11.2018 20:47:28 UTC  
vysvětlivky
METAR EDDB 122020Z 17007KT CAVOK 11/07 Q1017 NOSIG=
METAR EDDC 122020Z 16011KT CAVOK 10/06 Q1020 NOSIG=
METAR EDDE 122020Z 20011KT CAVOK 15/09 Q1018 NOSIG=
METAR EDDF 122020Z 17003KT 120V200 CAVOK 13/13 Q1018 NOSIG=
METAR EDDM 122020Z VRB02KT 1200 0800NE R08L/0450N R08R/0600V1300U BCFG SCT001 04/04 Q1022 BECMG 0400 FG VV001=
METAR EDDN 122020Z 13008KT CAVOK 09/07 Q1021 NOSIG=
METAR EDDP 122020Z 19011KT CAVOK 13/08 Q1018 NOSIG=
METAR EDDT 122020Z 18005KT CAVOK 12/08 Q1017 NOSIG=
METAR EDQM 121850Z VRB02KT CAVOK 06/05 Q1021=
METAR EPBY 122030Z 16007KT 6000 NSC 10/09 Q1020 =
METAR EPGD 122030Z 17009KT 120V190 6000 NSC 10/08 Q1018 =
METAR EPKK 122030Z VRB02KT 2500 MIFG BR NSC 05/04 Q1024 =
METAR EPKT 122030Z 14006KT 5000 BR NSC 09/06 Q1023 =
METAR EPLL 122030Z 11003KT 080V140 7000 NSC 07/06 Q1022 =
METAR EPPO 122030Z 17005KT 5000 BR NSC 09/09 Q1020 R10/09//95 =
METAR EPRZ 122030Z 09008KT 3500 BR NSC 06/06 Q1026 =
METAR EPWA 122030Z 14007KT 7000 NSC 08/07 Q1024 NOSIG=
METAR EPWR 122030Z 14003KT 100V170 8000 MIFG NSC 07/07 Q1021 =
METAR LHBP 122030Z 12005KT CAVOK 13/07 Q1026 NOSIG=
METAR LHSM NIL
SPECI LKBC 122032Z AUTO 14004KT 070V170 4800 BR OVC004 07/07 Q1022=
METAR LKCV 122000Z 27004KT 9999 OVC017 10/08 Q1023 NOSIG RMK WHT WHT=
METAR LKKB 122000Z 05003KT 5000 BR OVC013 09/09 Q1023 NOSIG RMK GRN GRN=
METAR LKKU NIL
METAR LKKV 122000Z 12004KT 1000 R29/1300N BR OVC002 04/04 Q1022 RMK REG QNH 1018=
SPECI LKLN 122032Z AUTO VRB02KT 4700 BR OVC004 07/07 Q1024=
METAR LKMT 122030Z VRB01KT CAVOK 08/07 Q1023 NOSIG RMK REG QNH 1018=
METAR LKNA 122000Z 08005KT 6000 FEW023 09/07 Q1023 NOSIG RMK WHT WHT=
METAR LKPD 122000Z 28003KT 260V330 9999 OVC023 11/08 Q1023 RMK BLACK=
METAR LKPR 122030Z 16005KT 9999 OVC011 09/07 Q1023 NOSIG RMK REG QNH 1018=
METAR LKTB 122030Z 08006KT CAVOK 11/08 Q1023 NOSIG RMK REG QNH 1018=
METAR LKVO NIL
METAR LOWI 122020Z 26008KT CAVOK 07/05 Q1024 NOSIG=
METAR LOWL 122020Z AUTO VRB02KT 6000 FEW004 BKN005 08/07 Q1024 TEMPO 4000 BR BKN004=
METAR COR LOWS 122020Z 03003KT 1200 0400W R15/P1500D R33/P1500D BCFG BR BKN002 04/03 Q1023 TEMPO 0400=
METAR LOWW 122020Z 34003KT 310V020 0650 R16/0900U R29/0650N FG VV001 09/09 Q1023 NOSIG=
METAR LZIB 122030Z 03005KT 9999 SCT043 11/08 Q1023 WS R13=
METAR LZKZ 122030Z VRB01KT 8000 NSC 06/04 Q1027=
METAR LZMC 122000Z 14008KT 8000 SKC 14/08 Q1023=
METAR LZPP 122030Z AUTO 12014KT 9999 OVC052/// 15/07 Q1024=
METAR LZSL 122030Z 01004KT 9999 FEW052 BKN066 11/08 Q1027=
METAR LZTT 122030Z 21006KT 160V240 9999 FEW040 10/06 Q1026=
METAR LZZI 122030Z VRB02KT 9999 SCT044 07/06 Q1025=